createdAt,value
2022-08-03T00:00:54.967Z,5.95
2022-08-03T00:06:03.532Z,6.65
2022-08-03T00:11:07.494Z,8.07
2022-08-03T00:16:13.243Z,5.65
2022-08-03T00:21:15.801Z,7.63
2022-08-03T00:26:18.390Z,10.75
2022-08-03T00:31:32.217Z,9.15
2022-08-03T00:36:44.797Z,7.70
2022-08-03T00:41:47.294Z,8.40
2022-08-03T00:46:51.164Z,4.78
2022-08-03T00:51:53.809Z,9.00
2022-08-03T00:56:59.973Z,7.82
2022-08-03T01:02:04.481Z,6.90
2022-08-03T01:07:14.979Z,8.90
2022-08-03T01:12:26.215Z,7.43
2022-08-03T01:17:36.772Z,5.75
2022-08-03T01:23:04.274Z,5.63
2022-08-03T01:28:26.434Z,5.22
2022-08-03T01:33:37.194Z,9.60
2022-08-03T01:38:44.378Z,7.63
2022-08-03T01:44:26.608Z,7.07
2022-08-03T01:49:15.252Z,9.63
2022-08-03T01:54:19.222Z,9.13
2022-08-03T01:59:23.096Z,7.10
2022-08-03T02:04:29.200Z,7.00
2022-08-03T02:09:32.889Z,7.72
2022-08-03T02:14:36.580Z,6.45
2022-08-03T02:19:41.547Z,6.20
2022-08-03T02:24:49.275Z,10.82
2022-08-03T02:30:01.398Z,7.72
2022-08-03T02:35:10.724Z,9.02
2022-08-03T02:40:16.091Z,8.10
2022-08-03T02:45:21.290Z,17.05
2022-08-03T02:50:27.517Z,7.03
2022-08-03T02:55:31.427Z,6.85
2022-08-03T03:00:34.435Z,7.05
2022-08-03T03:05:56.336Z,11.48
2022-08-03T03:11:01.713Z,8.55
2022-08-03T03:16:07.013Z,13.38
2022-08-03T03:21:11.731Z,10.70
2022-08-03T03:26:15.661Z,10.10
2022-08-03T03:31:18.225Z,8.70
2022-08-03T03:36:22.255Z,8.13
2022-08-03T03:41:25.166Z,11.73
2022-08-03T03:46:27.886Z,10.35
2022-08-03T03:51:31.928Z,10.43
2022-08-03T03:56:35.026Z,11.60
2022-08-03T04:01:37.543Z,12.48
2022-08-03T04:06:59.002Z,9.30
2022-08-03T04:12:03.516Z,11.35
2022-08-03T04:17:10.258Z,11.68
2022-08-03T04:22:18.606Z,14.43
2022-08-03T04:27:24.233Z,14.77
2022-08-03T04:32:28.704Z,15.60
2022-08-03T04:37:39.531Z,17.02
2022-08-03T04:42:43.976Z,15.68
2022-08-03T04:47:46.803Z,15.43
2022-08-03T04:52:51.408Z,16.88
2022-08-03T04:57:54.073Z,19.17
2022-08-03T05:02:56.718Z,13.48
2022-08-03T05:08:00.831Z,15.02
2022-08-03T05:13:06.027Z,12.77
2022-08-03T05:18:13.522Z,12.63
2022-08-03T05:23:18.178Z,9.80
2022-08-03T05:28:20.808Z,8.43
2022-08-03T05:33:23.328Z,8.82
2022-08-03T05:38:28.678Z,10.23
2022-08-03T05:43:36.979Z,9.38
2022-08-03T05:48:42.409Z,8.82
2022-08-03T05:53:46.404Z,8.93
2022-08-03T05:58:48.964Z,7.50
